Time;durP1;ratioP1;P1;durP2;ratioP2;P2;SDS_P1;SDS_P2;PMS_P1;PMS_P2;Temp;Humidity;BMP_temperature;BMP_pressure;BME280_temperature;BME280_humidity;BME280_pressure;Samples;Min_cycle;Max_cycle;Signal;HPM_P1;HPM_P2
2023/12/09 00:00:41;;;;;;;86.22;26.60;;;;;;;;;;6219956;23;20075;-95
2023/12/09 00:03:08;;;;;;;86.07;27.48;;;;;;;;;;6194756;23;20032;-92
2023/12/09 00:05:34;;;;;;;76.65;26.38;;;;;;;;;;6195354;23;20456;-93
2023/12/09 00:08:00;;;;;;;77.72;27.10;;;;;;;;;;6195054;23;20020;-93
2023/12/09 00:10:27;;;;;;;72.25;26.65;;;;;;;;;;6220328;23;20028;-92
2023/12/09 00:12:54;;;;;;;72.88;28.48;;;;;;;;;;6220713;23;20021;-93
2023/12/09 00:15:20;;;;;;;86.35;28.73;;;;;;;;;;6195197;23;20028;-93
2023/12/09 00:17:46;;;;;;;86.13;27.13;;;;;;;;;;6195244;23;20410;-93
2023/12/09 00:20:12;;;;;;;65.63;24.63;;;;;;;;;;6219867;23;20024;-93
2023/12/09 00:22:39;;;;;;;72.43;27.60;;;;;;;;;;6229614;23;20074;-96
2023/12/09 00:25:06;;;;;;;84.10;26.60;;;;;;;;;;6220345;23;20101;-95
2023/12/09 00:27:32;;;;;;;72.28;23.55;;;;;;;;;;6220066;23;20099;-96
2023/12/09 00:29:59;;;;;;;70.65;26.55;;;;;;;;;;6219914;23;20036;-95
2023/12/09 00:32:25;;;;;;;83.55;25.45;;;;;;;;;;6195232;23;20024;-95
2023/12/09 00:34:51;;;;;;;74.50;28.95;;;;;;;;;;6194552;23;20102;-95
2023/12/09 00:37:17;;;;;;;75.82;25.83;;;;;;;;;;6194801;23;20146;-96
2023/12/09 00:39:43;;;;;;;70.55;24.45;;;;;;;;;;6219974;23;20024;-94
2023/12/09 00:42:10;;;;;;;65.82;24.60;;;;;;;;;;6194675;23;20024;-95
2023/12/09 00:44:36;;;;;;;77.57;25.60;;;;;;;;;;6219976;23;20052;-95
2023/12/09 00:47:02;;;;;;;71.97;24.50;;;;;;;;;;6219306;23;20060;-95
2023/12/09 00:49:28;;;;;;;71.97;25.27;;;;;;;;;;6219454;23;20100;-95
2023/12/09 00:51:54;;;;;;;69.30;25.88;;;;;;;;;;6194662;23;20020;-93
2023/12/09 00:54:20;;;;;;;69.57;24.60;;;;;;;;;;6219725;23;20016;-95
2023/12/09 00:56:46;;;;;;;71.88;28.10;;;;;;;;;;6219328;23;20028;-94
2023/12/09 00:59:12;;;;;;;55.60;24.65;;;;;;;;;;6219332;23;20020;-95
2023/12/09 01:01:38;;;;;;;64.43;23.88;;;;;;;;;;6194840;23;20024;-94
2023/12/09 01:04:06;;;;;;;67.90;22.90;;;;;;;;;;6219369;23;20074;-93
2023/12/09 01:06:32;;;;;;;63.00;24.42;;;;;;;;;;6219541;23;20085;-93
2023/12/09 01:08:58;;;;;;;61.78;23.27;;;;;;;;;;6194014;23;20016;-93
2023/12/09 01:11:25;;;;;;;64.20;25.42;;;;;;;;;;6219424;23;20111;-93
2023/12/09 01:13:51;;;;;;;69.45;26.40;;;;;;;;;;6219313;23;20024;-94
2023/12/09 01:16:17;;;;;;;53.60;22.63;;;;;;;;;;6219436;23;20515;-94
2023/12/09 01:18:43;;;;;;;48.65;22.70;;;;;;;;;;6194570;23;20330;-95
2023/12/09 01:21:09;;;;;;;70.65;23.80;;;;;;;;;;6194402;23;20016;-94
2023/12/09 01:23:35;;;;;;;67.50;24.98;;;;;;;;;;6219547;23;20474;-93
2023/12/09 01:26:01;;;;;;;59.22;23.42;;;;;;;;;;6194282;23;20031;-94
2023/12/09 01:28:27;;;;;;;61.70;23.52;;;;;;;;;;6194131;23;20449;-94
2023/12/09 01:30:53;;;;;;;56.78;23.40;;;;;;;;;;6193609;23;20027;-94
2023/12/09 01:33:20;;;;;;;62.67;22.63;;;;;;;;;;6218677;23;20408;-94
2023/12/09 01:35:46;;;;;;;53.35;24.17;;;;;;;;;;6219370;23;20091;-95
2023/12/09 01:38:12;;;;;;;60.63;20.52;;;;;;;;;;6218489;23;20063;-94
2023/12/09 01:40:38;;;;;;;67.20;23.25;;;;;;;;;;6219134;23;20016;-94
2023/12/09 01:43:09;;;;;;;52.72;21.70;;;;;;;;;;6219225;23;20024;-93
2023/12/09 01:45:35;;;;;;;66.32;21.95;;;;;;;;;;6218716;23;20024;-93
2023/12/09 01:48:01;;;;;;;52.72;20.65;;;;;;;;;;6218854;23;20020;-94
2023/12/09 01:50:28;;;;;;;60.63;20.25;;;;;;;;;;6218732;23;20024;-93
2023/12/09 01:52:54;;;;;;;53.53;20.80;;;;;;;;;;6218649;23;20388;-94
2023/12/09 01:55:20;;;;;;;57.65;21.80;;;;;;;;;;6218921;23;20025;-93
2023/12/09 01:57:46;;;;;;;51.85;20.45;;;;;;;;;;6218179;23;20349;-95
2023/12/09 02:00:13;;;;;;;57.38;22.08;;;;;;;;;;6218607;23;20449;-96
2023/12/09 02:02:39;;;;;;;49.65;19.40;;;;;;;;;;6218010;23;20027;-94
2023/12/09 02:05:05;;;;;;;45.33;19.13;;;;;;;;;;6218183;23;20023;-93
2023/12/09 02:07:33;;;;;;;52.53;19.50;;;;;;;;;;6217919;23;20020;-94
2023/12/09 02:10:00;;;;;;;43.55;18.58;;;;;;;;;;6218690;23;20461;-93
2023/12/09 02:12:37;;;;;;;60.70;20.55;;;;;;;;;;6218551;23;20020;-94
2023/12/09 02:15:03;;;;;;;48.15;17.92;;;;;;;;;;6218157;23;20310;-93
2023/12/09 02:17:33;;;;;;;58.08;21.15;;;;;;;;;;6217871;23;20020;-93
2023/12/09 02:19:59;;;;;;;51.38;20.33;;;;;;;;;;6218844;23;20024;-92
2023/12/09 02:22:25;;;;;;;43.72;16.38;;;;;;;;;;6218638;23;20020;-95
2023/12/09 02:24:51;;;;;;;69.20;18.85;;;;;;;;;;6221480;23;20462;-94
2023/12/09 02:27:25;;;;;;;50.28;17.90;;;;;;;;;;6217890;23;20047;-93
2023/12/09 02:29:55;;;;;;;35.45;16.83;;;;;;;;;;6217749;23;20020;-93
2023/12/09 02:32:23;;;;;;;38.10;17.55;;;;;;;;;;6218198;23;20027;-93
2023/12/09 02:34:50;;;;;;;64.80;20.10;;;;;;;;;;6218129;23;20027;-93
2023/12/09 02:37:17;;;;;;;50.83;17.35;;;;;;;;;;6193429;23;20024;-93
2023/12/09 02:39:43;;;;;;;50.15;18.33;;;;;;;;;;6218400;23;20047;-94
2023/12/09 02:42:09;;;;;;;49.00;18.33;;;;;;;;;;6218765;23;20020;-94
2023/12/09 02:44:35;;;;;;;48.40;18.27;;;;;;;;;;6218511;23;20054;-93
2023/12/09 02:47:02;;;;;;;53.65;18.08;;;;;;;;;;6218047;23;20020;-93
2023/12/09 02:49:28;;;;;;;47.83;19.88;;;;;;;;;;6218300;23;20027;-94
2023/12/09 02:51:54;;;;;;;46.00;18.40;;;;;;;;;;6193377;23;20024;-94
2023/12/09 02:54:20;;;;;;;53.90;19.23;;;;;;;;;;6193170;23;20020;-94
2023/12/09 02:56:46;;;;;;;46.92;18.75;;;;;;;;;;6218287;23;20020;-94
2023/12/09 02:59:14;;;;;;;51.00;20.10;;;;;;;;;;6218416;23;20078;-93
2023/12/09 03:01:40;;;;;;;49.38;19.17;;;;;;;;;;6218277;23;20024;-92
2023/12/09 03:04:07;;;;;;;60.20;19.15;;;;;;;;;;6193126;23;20016;-93
2023/12/09 03:06:33;;;;;;;35.90;17.15;;;;;;;;;;6193275;23;20043;-93
2023/12/09 03:08:59;;;;;;;47.70;16.83;;;;;;;;;;6192994;23;20048;-95
2023/12/09 03:11:25;;;;;;;52.67;19.33;;;;;;;;;;6218823;23;20024;-93
2023/12/09 03:13:51;;;;;;;46.28;18.25;;;;;;;;;;6220244;23;20465;-93
2023/12/09 03:16:17;;;;;;;55.58;18.27;;;;;;;;;;6219857;23;20016;-93
2023/12/09 03:18:43;;;;;;;42.50;16.23;;;;;;;;;;6194818;23;20107;-94
2023/12/09 03:21:14;;;;;;;45.30;18.67;;;;;;;;;;6194904;23;20019;-94
2023/12/09 03:23:41;;;;;;;44.33;17.52;;;;;;;;;;6220772;23;20327;-94
2023/12/09 03:26:13;;;;;;;43.78;18.67;;;;;;;;;;6220276;23;20016;-94
2023/12/09 03:28:40;;;;;;;46.15;17.95;;;;;;;;;;6219827;23;20107;-95
2023/12/09 03:31:06;;;;;;;43.97;18.10;;;;;;;;;;6220494;23;20039;-95
2023/12/09 03:33:33;;;;;;;44.28;17.27;;;;;;;;;;6195098;23;20112;-94
2023/12/09 03:35:59;;;;;;;48.63;18.23;;;;;;;;;;6220088;23;20020;-95
2023/12/09 03:38:25;;;;;;;33.45;15.70;;;;;;;;;;6195348;23;20020;-94
2023/12/09 03:40:51;;;;;;;40.63;17.20;;;;;;;;;;6195423;23;20024;-94
2023/12/09 03:43:17;;;;;;;36.30;15.07;;;;;;;;;;6220554;23;20055;-93
2023/12/09 03:45:43;;;;;;;51.67;16.92;;;;;;;;;;6220012;23;20024;-95
2023/12/09 03:48:09;;;;;;;36.95;14.32;;;;;;;;;;6195038;23;20452;-94
2023/12/09 03:50:35;;;;;;;41.00;16.55;;;;;;;;;;6220556;23;20024;-94
2023/12/09 03:53:01;;;;;;;37.00;14.57;;;;;;;;;;6195310;23;20102;-94
2023/12/09 03:55:28;;;;;;;43.00;15.13;;;;;;;;;;6195268;23;20453;-93
2023/12/09 03:57:54;;;;;;;43.25;15.25;;;;;;;;;;6219832;23;20028;-96
2023/12/09 04:00:20;;;;;;;44.83;16.00;;;;;;;;;;6195818;23;20016;-96
2023/12/09 04:02:46;;;;;;;37.45;17.13;;;;;;;;;;6220351;23;20020;-93
2023/12/09 04:05:13;;;;;;;41.13;16.25;;;;;;;;;;6194835;23;20024;-95
2023/12/09 04:07:39;;;;;;;38.35;15.48;;;;;;;;;;6195271;23;20027;-95
2023/12/09 04:10:05;;;;;;;34.35;16.73;;;;;;;;;;6220173;23;20027;-95
2023/12/09 04:12:32;;;;;;;32.65;16.70;;;;;;;;;;6195046;23;20016;-95
2023/12/09 04:14:58;;;;;;;34.05;16.02;;;;;;;;;;6194993;23;20020;-96
2023/12/09 04:17:24;;;;;;;45.20;17.00;;;;;;;;;;6220041;23;20028;-95
2023/12/09 04:19:51;;;;;;;48.55;18.13;;;;;;;;;;6220075;23;20461;-95
2023/12/09 04:22:17;;;;;;;53.22;14.38;;;;;;;;;;6195185;23;20024;-96
2023/12/09 04:24:43;;;;;;;37.22;15.85;;;;;;;;;;6219896;23;20385;-96
2023/12/09 04:27:09;;;;;;;41.78;17.02;;;;;;;;;;6219740;23;20033;-96
2023/12/09 04:29:35;;;;;;;40.75;15.35;;;;;;;;;;6220189;23;20027;-95
2023/12/09 04:32:02;;;;;;;35.92;15.48;;;;;;;;;;6194636;23;20020;-93
2023/12/09 04:34:28;;;;;;;37.13;13.98;;;;;;;;;;6220092;23;20048;-94
2023/12/09 04:36:54;;;;;;;31.08;14.85;;;;;;;;;;6220057;23;20047;-96
2023/12/09 04:39:20;;;;;;;40.85;14.70;;;;;;;;;;6219791;23;20020;-95
2023/12/09 04:41:47;;;;;;;45.92;14.73;;;;;;;;;;6220384;23;20028;-95
2023/12/09 04:44:13;;;;;;;43.85;16.50;;;;;;;;;;6219779;23;20042;-95
2023/12/09 04:46:39;;;;;;;35.08;18.05;;;;;;;;;;6219561;23;20032;-93
2023/12/09 04:49:05;;;;;;;36.38;14.02;;;;;;;;;;6194436;23;20016;-94
2023/12/09 04:51:32;;;;;;;33.75;13.75;;;;;;;;;;6219651;23;20055;-95
2023/12/09 04:53:58;;;;;;;37.53;14.07;;;;;;;;;;6219694;23;20016;-95
2023/12/09 04:56:24;;;;;;;32.25;13.82;;;;;;;;;;6194681;23;20024;-94
2023/12/09 04:58:50;;;;;;;40.15;15.30;;;;;;;;;;6219572;23;20021;-95
2023/12/09 05:01:16;;;;;;;36.90;14.75;;;;;;;;;;6194413;23;20024;-95
2023/12/09 05:03:42;;;;;;;34.90;14.10;;;;;;;;;;6194284;23;20028;-95
2023/12/09 05:06:08;;;;;;;40.00;15.02;;;;;;;;;;6219369;23;20362;-94
2023/12/09 05:08:34;;;;;;;44.92;13.68;;;;;;;;;;6193594;23;20045;-95
2023/12/09 05:11:01;;;;;;;54.60;14.55;;;;;;;;;;6194187;23;20103;-94
2023/12/09 05:13:27;;;;;;;29.75;13.48;;;;;;;;;;6194295;23;20350;-94
2023/12/09 05:15:53;;;;;;;37.40;14.15;;;;;;;;;;6194222;23;20055;-92
2023/12/09 05:18:19;;;;;;;34.45;14.23;;;;;;;;;;6219443;23;20227;-94
2023/12/09 05:20:45;;;;;;;38.97;13.07;;;;;;;;;;6194004;23;20020;-95
2023/12/09 05:23:11;;;;;;;36.90;12.77;;;;;;;;;;6219460;23;20024;-94
2023/12/09 05:25:37;;;;;;;33.38;13.52;;;;;;;;;;6194540;23;20062;-93
2023/12/09 05:28:04;;;;;;;35.17;13.40;;;;;;;;;;6219071;23;20016;-92
2023/12/09 05:30:31;;;;;;;41.17;13.88;;;;;;;;;;6194041;23;20017;-93
2023/12/09 05:32:57;;;;;;;33.88;12.75;;;;;;;;;;6194365;23;20031;-93
2023/12/09 05:35:26;;;;;;;38.58;14.02;;;;;;;;;;6193999;23;20490;-95
2023/12/09 05:37:52;;;;;;;38.90;13.77;;;;;;;;;;6219226;23;20050;-95
2023/12/09 05:40:18;;;;;;;32.97;12.38;;;;;;;;;;6193821;23;20059;-94
2023/12/09 05:42:45;;;;;;;32.33;13.63;;;;;;;;;;6219999;23;20020;-94
2023/12/09 05:45:11;;;;;;;47.63;14.63;;;;;;;;;;6194146;23;20028;-93
2023/12/09 05:47:37;;;;;;;34.83;12.85;;;;;;;;;;6194071;23;20031;-93
2023/12/09 05:50:03;;;;;;;43.95;13.52;;;;;;;;;;6193874;23;20491;-95
2023/12/09 05:52:29;;;;;;;35.55;13.27;;;;;;;;;;6194587;23;20086;-95
2023/12/09 05:54:55;;;;;;;30.38;12.95;;;;;;;;;;6219293;23;20016;-96
2023/12/09 05:57:21;;;;;;;33.78;12.98;;;;;;;;;;6219087;23;20020;-96
2023/12/09 05:59:47;;;;;;;33.45;12.77;;;;;;;;;;6219100;23;20453;-94
2023/12/09 06:02:13;;;;;;;33.67;13.45;;;;;;;;;;6219279;23;20055;-94
2023/12/09 06:04:39;;;;;;;35.05;12.43;;;;;;;;;;6218894;23;20480;-95
2023/12/09 06:07:06;;;;;;;31.70;12.10;;;;;;;;;;6194505;23;20095;-95
2023/12/09 06:09:32;;;;;;;29.08;12.38;;;;;;;;;;6219463;23;20031;-95
2023/12/09 06:11:58;;;;;;;35.92;11.98;;;;;;;;;;6222483;23;20030;-96
2023/12/09 06:14:24;;;;;;;29.90;11.52;;;;;;;;;;6193999;23;20020;-94
2023/12/09 06:16:50;;;;;;;32.88;11.02;;;;;;;;;;6219349;23;20027;-95
2023/12/09 06:19:16;;;;;;;34.50;12.23;;;;;;;;;;6218652;23;20023;-96
2023/12/09 06:21:42;;;;;;;43.35;13.20;;;;;;;;;;6220587;23;20024;-96
2023/12/09 06:24:08;;;;;;;29.90;11.75;;;;;;;;;;6196842;23;20019;-96
2023/12/09 06:26:34;;;;;;;31.23;12.63;;;;;;;;;;6221849;23;20484;-96
2023/12/09 06:29:00;;;;;;;30.45;12.88;;;;;;;;;;6222644;23;20016;-95
2023/12/09 06:31:26;;;;;;;26.42;11.25;;;;;;;;;;6223934;23;20020;-96
2023/12/09 06:33:53;;;;;;;38.47;11.80;;;;;;;;;;6226701;23;20404;-95
2023/12/09 06:36:19;;;;;;;29.85;10.65;;;;;;;;;;6223942;23;20055;-95
2023/12/09 06:38:45;;;;;;;30.70;12.13;;;;;;;;;;6222501;23;20056;-94
2023/12/09 06:41:14;;;;;;;39.97;11.85;;;;;;;;;;6221893;23;20016;-94
2023/12/09 06:43:40;;;;;;;26.73;10.82;;;;;;;;;;6219819;23;20020;-95
2023/12/09 06:46:06;;;;;;;27.73;11.32;;;;;;;;;;6220017;23;20020;-94
2023/12/09 06:48:32;;;;;;;38.22;12.77;;;;;;;;;;6196066;23;20028;-94
2023/12/09 06:50:58;;;;;;;30.67;11.63;;;;;;;;;;6221045;23;20024;-93
2023/12/09 06:53:25;;;;;;;36.10;11.57;;;;;;;;;;6196014;23;20016;-94
2023/12/09 06:55:51;;;;;;;29.42;10.40;;;;;;;;;;6220945;23;20099;-95
2023/12/09 06:58:17;;;;;;;31.73;9.98;;;;;;;;;;6222536;23;20024;-92
2023/12/09 07:00:43;;;;;;;25.38;11.45;;;;;;;;;;6211890;23;20020;-92
2023/12/09 07:03:11;;;;;;;25.42;10.55;;;;;;;;;;6237674;23;20024;-92
2023/12/09 07:05:40;;;;;;;32.67;11.10;;;;;;;;;;6213619;23;20027;-92
2023/12/09 07:08:06;;;;;;;21.48;10.68;;;;;;;;;;6236774;23;20027;-92
2023/12/09 07:10:32;;;;;;;25.00;10.63;;;;;;;;;;6213789;23;20020;-93
2023/12/09 07:12:58;;;;;;;25.33;10.45;;;;;;;;;;6212040;23;20024;-92
2023/12/09 07:15:24;;;;;;;21.85;10.15;;;;;;;;;;6216329;23;20055;-92
2023/12/09 07:17:50;;;;;;;33.88;11.10;;;;;;;;;;6238144;23;20131;-92
2023/12/09 07:20:16;;;;;;;24.38;10.52;;;;;;;;;;6213125;23;20059;-92
2023/12/09 07:22:42;;;;;;;31.38;10.15;;;;;;;;;;6220421;23;20026;-92
2023/12/09 07:25:08;;;;;;;36.67;11.52;;;;;;;;;;6220170;23;20027;-93
2023/12/09 07:27:34;;;;;;;23.08;9.93;;;;;;;;;;6220087;23;20039;-94
2023/12/09 07:30:01;;;;;;;29.05;11.05;;;;;;;;;;6219619;23;20090;-94
2023/12/09 07:32:27;;;;;;;23.35;10.45;;;;;;;;;;6195135;23;20023;-94
2023/12/09 07:34:53;;;;;;;26.55;10.15;;;;;;;;;;6219847;23;20468;-93
2023/12/09 07:37:19;;;;;;;21.85;9.38;;;;;;;;;;6194866;23;20020;-93
2023/12/09 07:39:45;;;;;;;22.33;10.13;;;;;;;;;;6219867;23;20016;-94
2023/12/09 07:42:11;;;;;;;23.67;11.02;;;;;;;;;;6194847;23;20020;-93
2023/12/09 07:44:37;;;;;;;19.92;8.82;;;;;;;;;;6220326;23;20020;-92
2023/12/09 07:47:04;;;;;;;24.67;9.60;;;;;;;;;;6220000;23;20020;-94
2023/12/09 07:49:30;;;;;;;24.55;9.45;;;;;;;;;;6219810;23;20016;-94
2023/12/09 07:51:56;;;;;;;40.92;12.43;;;;;;;;;;6195177;23;20408;-94
2023/12/09 07:54:22;;;;;;;30.90;9.80;;;;;;;;;;6194656;23;20024;-94
2023/12/09 07:56:48;;;;;;;21.70;9.43;;;;;;;;;;6195663;23;20028;-94
2023/12/09 07:59:14;;;;;;;37.42;10.10;;;;;;;;;;6219677;23;20020;-93
2023/12/09 08:01:40;;;;;;;23.65;9.25;;;;;;;;;;6220056;23;20024;-95
2023/12/09 08:04:06;;;;;;;34.58;10.02;;;;;;;;;;6194842;23;20023;-94
2023/12/09 08:06:32;;;;;;;28.13;10.93;;;;;;;;;;6194777;23;20479;-93
2023/12/09 08:08:59;;;;;;;29.48;10.02;;;;;;;;;;6199262;23;20077;-95
2023/12/09 08:11:25;;;;;;;26.15;9.38;;;;;;;;;;6205655;23;20020;-95
2023/12/09 08:13:51;;;;;;;21.25;8.82;;;;;;;;;;6261353;23;20099;-93
2023/12/09 08:16:17;;;;;;;19.65;8.70;;;;;;;;;;6204832;23;20062;-93
2023/12/09 08:18:43;;;;;;;28.02;9.27;;;;;;;;;;6233056;23;20074;-96
2023/12/09 08:21:10;;;;;;;29.30;8.60;;;;;;;;;;6221845;23;20020;-94
2023/12/09 08:23:36;;;;;;;29.08;10.32;;;;;;;;;;6201213;23;20050;-94
2023/12/09 08:26:03;;;;;;;34.22;9.10;;;;;;;;;;6221025;23;20085;-95
2023/12/09 08:28:30;;;;;;;23.33;8.55;;;;;;;;;;6195604;23;20051;-95
2023/12/09 08:30:56;;;;;;;31.08;8.35;;;;;;;;;;6193712;23;20063;-94
2023/12/09 08:33:22;;;;;;;21.20;8.77;;;;;;;;;;6193106;23;20021;-95
2023/12/09 08:35:48;;;;;;;25.23;8.50;;;;;;;;;;6165175;23;20020;-93
2023/12/09 08:38:14;;;;;;;30.48;7.97;;;;;;;;;;6189422;23;20418;-93
2023/12/09 08:40:40;;;;;;;30.92;8.73;;;;;;;;;;6189719;23;20074;-94
2023/12/09 08:43:06;;;;;;;23.10;7.35;;;;;;;;;;6164684;23;20496;-94
2023/12/09 08:45:33;;;;;;;27.30;9.80;;;;;;;;;;6165006;23;20397;-94
2023/12/09 08:47:59;;;;;;;24.05;8.70;;;;;;;;;;6164785;23;20052;-93
2023/12/09 08:50:25;;;;;;;39.25;10.35;;;;;;;;;;6188958;23;20544;-95
2023/12/09 08:52:52;;;;;;;29.13;8.90;;;;;;;;;;6189691;23;20031;-94
2023/12/09 08:55:18;;;;;;;25.77;8.63;;;;;;;;;;6164727;23;20087;-95
2023/12/09 08:57:45;;;;;;;24.33;7.95;;;;;;;;;;6189285;23;20031;-94
2023/12/09 09:00:11;;;;;;;22.15;8.95;;;;;;;;;;6189000;23;20021;-94
2023/12/09 09:02:40;;;;;;;22.13;7.97;;;;;;;;;;6188926;23;20082;-92
2023/12/09 09:05:06;;;;;;;25.73;7.43;;;;;;;;;;6188848;23;20020;-94
2023/12/09 09:07:36;;;;;;;38.08;8.68;;;;;;;;;;6188923;23;20350;-92
2023/12/09 09:10:02;;;;;;;20.80;8.52;;;;;;;;;;6164869;23;20020;-93
2023/12/09 09:12:29;;;;;;;33.60;7.97;;;;;;;;;;6164449;23;20024;-94
2023/12/09 09:14:56;;;;;;;24.00;7.88;;;;;;;;;;6164844;23;20021;-95
2023/12/09 09:17:22;;;;;;;15.75;7.38;;;;;;;;;;6164361;23;20132;-92
2023/12/09 09:19:48;;;;;;;21.35;7.80;;;;;;;;;;6164668;23;20167;-94
2023/12/09 09:22:15;;;;;;;14.20;7.72;;;;;;;;;;6164252;23;20021;-93
2023/12/09 09:24:41;;;;;;;16.80;5.93;;;;;;;;;;6164352;23;20020;-93
2023/12/09 09:27:07;;;;;;;29.00;6.82;;;;;;;;;;6164256;23;20017;-94
2023/12/09 09:29:33;;;;;;;20.30;7.50;;;;;;;;;;6168029;23;20388;-93
2023/12/09 09:31:59;;;;;;;19.77;6.95;;;;;;;;;;6194263;23;20414;-96
2023/12/09 09:34:25;;;;;;;28.02;8.35;;;;;;;;;;6219627;23;20102;-96
2023/12/09 09:36:51;;;;;;;19.23;6.30;;;;;;;;;;6218652;23;20020;-94
2023/12/09 09:39:18;;;;;;;22.65;6.97;;;;;;;;;;6192571;23;20024;-96
2023/12/09 09:42:08;;;;;;;23.70;7.38;;;;;;;;;;6218850;23;20523;-96
2023/12/09 09:44:38;;;;;;;19.65;7.05;;;;;;;;;;6219714;23;20078;-94
2023/12/09 09:47:04;;;;;;;21.30;8.20;;;;;;;;;;6219588;23;20365;-95
2023/12/09 09:49:31;;;;;;;21.48;7.32;;;;;;;;;;6194637;23;20020;-96
2023/12/09 09:51:58;;;;;;;13.90;6.15;;;;;;;;;;6217906;23;20027;-95
2023/12/09 09:54:26;;;;;;;14.10;4.60;;;;;;;;;;6218065;23;20020;-96
2023/12/09 09:56:53;;;;;;;17.02;4.63;;;;;;;;;;6219173;23;20473;-95
2023/12/09 09:59:20;;;;;;;12.63;6.30;;;;;;;;;;6244479;23;20353;-95
2023/12/09 10:01:46;;;;;;;19.30;7.07;;;;;;;;;;6219574;23;20024;-95
2023/12/09 10:04:13;;;;;;;21.00;6.03;;;;;;;;;;6218333;23;20020;-94
2023/12/09 10:06:40;;;;;;;17.80;6.30;;;;;;;;;;6219161;23;20024;-96
2023/12/09 10:09:09;;;;;;;13.68;6.13;;;;;;;;;;6218728;23;20016;-95
2023/12/09 10:11:35;;;;;;;21.63;6.65;;;;;;;;;;6219355;23;20030;-96
2023/12/09 10:14:01;;;;;;;22.90;7.32;;;;;;;;;;6218911;23;20090;-95
2023/12/09 10:16:27;;;;;;;17.05;4.70;;;;;;;;;;6218846;23;20031;-96
2023/12/09 10:18:53;;;;;;;15.20;5.00;;;;;;;;;;6193549;23;20357;-92
2023/12/09 10:21:20;;;;;;;14.30;5.88;;;;;;;;;;6193656;23;20055;-95
2023/12/09 10:23:46;;;;;;;19.67;5.47;;;;;;;;;;6193813;23;20452;-96
2023/12/09 10:26:13;;;;;;;18.83;5.82;;;;;;;;;;6218420;23;20024;-93
2023/12/09 10:28:39;;;;;;;16.60;6.60;;;;;;;;;;6194096;23;20453;-95
2023/12/09 10:31:07;;;;;;;17.40;5.63;;;;;;;;;;6188305;23;20337;-93
2023/12/09 10:33:34;;;;;;;21.25;5.20;;;;;;;;;;6188186;23;20100;-94
2023/12/09 10:36:03;;;;;;;15.25;5.95;;;;;;;;;;6188697;23;20027;-94
2023/12/09 10:38:30;;;;;;;14.65;4.75;;;;;;;;;;6188288;23;20024;-95
2023/12/09 10:40:57;;;;;;;20.42;5.75;;;;;;;;;;6188577;23;20024;-95
2023/12/09 10:43:24;;;;;;;13.15;4.50;;;;;;;;;;6189005;23;20465;-95
2023/12/09 10:45:50;;;;;;;13.75;4.72;;;;;;;;;;6188637;23;20122;-95
2023/12/09 10:48:16;;;;;;;14.45;5.10;;;;;;;;;;6188239;23;20024;-95
2023/12/09 10:50:45;;;;;;;21.50;4.47;;;;;;;;;;6163546;23;20461;-95
2023/12/09 10:53:11;;;;;;;16.77;4.00;;;;;;;;;;6188811;23;20046;-94
2023/12/09 10:55:37;;;;;;;11.88;4.95;;;;;;;;;;6188335;23;20024;-93
2023/12/09 10:58:05;;;;;;;22.33;4.97;;;;;;;;;;6188446;23;20035;-94
2023/12/09 11:00:32;;;;;;;21.50;4.50;;;;;;;;;;6188112;23;20024;-93
2023/12/09 11:02:59;;;;;;;15.32;4.55;;;;;;;;;;6188019;23;20025;-93
2023/12/09 11:05:28;;;;;;;11.30;4.25;;;;;;;;;;6188413;23;20023;-92
2023/12/09 11:07:55;;;;;;;11.20;4.05;;;;;;;;;;6164024;23;20091;-93
2023/12/09 11:10:21;;;;;;;19.02;5.13;;;;;;;;;;6188614;23;20103;-94
2023/12/09 11:12:50;;;;;;;10.63;4.55;;;;;;;;;;6188576;23;20039;-94
2023/12/09 11:15:30;;;;;;;21.45;4.90;;;;;;;;;;6188268;23;20113;-95
2023/12/09 11:18:06;;;;;;;9.13;4.57;;;;;;;;;;6188513;23;20024;-94
2023/12/09 11:21:14;;;;;;;14.95;3.97;;;;;;;;;;5110703;27;20392;-93
2023/12/09 11:24:15;;;;;;;10.30;4.47;;;;;;;;;;5092076;28;20043;-93
2023/12/09 11:27:45;;;;;;;;;;;;;;;;;;;;;
2023/12/09 11:31:21;;;;;;;;;;;;;;;;;;;;;
2023/12/09 11:34:02;;;;;;;9.32;2.92;;;;;;;;;;5027934;28;20161;-93
2023/12/09 11:37:15;;;;;;;15.50;4.10;;;;;;;;;;4996158;28;20098;-94
2023/12/09 11:40:15;;;;;;;14.13;4.57;;;;;;;;;;5033550;28;20056;-94
2023/12/09 11:54:27;;;;;;;6.78;2.78;;;;;;;;;;5246484;22;20061;-92
2023/12/09 11:57:59;;;;;;;9.88;3.22;;;;;;;;;;4968754;28;20156;-94
2023/12/09 12:11:26;;;;;;;6.78;2.97;;;;;;;;;;4916627;28;20079;-92
2023/12/09 12:17:48;;;;;;;7.00;3.33;;;;;;;;;;4886892;29;20060;-92
2023/12/09 12:24:11;;;;;;;;;;;;;;;;;;;;;
2023/12/09 12:30:06;;;;;;;;;;;;;;;;;;;;;
2023/12/09 12:33:32;;;;;;;;;;;;;;;;;;;;;
2023/12/09 12:44:18;;;;;;;12.07;4.40;;;;;;;;;;4443343;23;20079;-92
2023/12/09 12:56:35;;;;;;;6.63;3.28;;;;;;;;;;4935104;28;20047;-92
2023/12/09 12:59:02;;;;;;;7.15;3.92;;;;;;;;;;4926441;29;20055;-93
2023/12/09 13:01:28;;;;;;;12.00;3.05;;;;;;;;;;4876490;29;20560;-92
2023/12/09 13:03:54;;;;;;;7.18;2.65;;;;;;;;;;4894721;29;20547;-93
2023/12/09 13:06:20;;;;;;;9.88;2.80;;;;;;;;;;4877525;29;20142;-93
2023/12/09 13:08:47;;;;;;;10.07;3.22;;;;;;;;;;4876372;29;20048;-93
2023/12/09 13:11:13;;;;;;;9.63;3.72;;;;;;;;;;4896408;29;20057;-93
2023/12/09 13:13:39;;;;;;;6.88;3.40;;;;;;;;;;4906525;29;20047;-92
2023/12/09 13:16:05;;;;;;;6.25;3.35;;;;;;;;;;4906576;29;20125;-93
2023/12/09 13:18:31;;;;;;;8.10;3.47;;;;;;;;;;4897744;29;20129;-92
2023/12/09 13:20:57;;;;;;;12.73;3.63;;;;;;;;;;4913835;28;20059;-93
2023/12/09 13:23:23;;;;;;;12.82;3.38;;;;;;;;;;4957923;28;20046;-92
2023/12/09 13:25:50;;;;;;;10.85;3.35;;;;;;;;;;4957748;28;20078;-93
2023/12/09 13:28:16;;;;;;;8.93;3.78;;;;;;;;;;4957816;28;20491;-93
2023/12/09 13:30:42;;;;;;;7.93;2.70;;;;;;;;;;4958244;28;20522;-93
2023/12/09 13:33:08;;;;;;;6.45;2.55;;;;;;;;;;4926974;28;20047;-93
2023/12/09 13:35:34;;;;;;;11.20;2.97;;;;;;;;;;4958651;28;20094;-94
2023/12/09 13:38:01;;;;;;;17.35;3.40;;;;;;;;;;4932330;28;20467;-93
2023/12/09 13:40:27;;;;;;;7.53;2.47;;;;;;;;;;4972751;28;20055;-93
2023/12/09 13:42:54;;;;;;;6.32;2.85;;;;;;;;;;4923407;29;20488;-92
2023/12/09 13:45:21;;;;;;;10.57;3.08;;;;;;;;;;4922901;29;20126;-93
2023/12/09 13:47:47;;;;;;;6.65;3.47;;;;;;;;;;4921384;29;20130;-92
2023/12/09 13:50:13;;;;;;;5.55;2.72;;;;;;;;;;4954656;29;20045;-93
2023/12/09 13:52:40;;;;;;;5.68;2.97;;;;;;;;;;4966988;28;20059;-92
2023/12/09 13:55:06;;;;;;;10.02;3.45;;;;;;;;;;4971022;28;20055;-92
2023/12/09 13:57:32;;;;;;;12.10;3.15;;;;;;;;;;4938554;29;20393;-92
2023/12/09 14:00:00;;;;;;;11.30;4.60;;;;;;;;;;4954867;28;20047;-92
2023/12/09 14:02:26;;;;;;;7.30;3.72;;;;;;;;;;4966373;28;20562;-91
2023/12/09 14:04:52;;;;;;;10.65;2.85;;;;;;;;;;4959262;28;20426;-92
2023/12/09 14:07:19;;;;;;;6.70;2.63;;;;;;;;;;4973719;28;20038;-92
2023/12/09 14:09:45;;;;;;;5.53;2.60;;;;;;;;;;4940282;28;20055;-92
2023/12/09 14:12:12;;;;;;;6.30;2.97;;;;;;;;;;4983272;28;20121;-93
2023/12/09 14:14:38;;;;;;;7.20;2.85;;;;;;;;;;4962045;28;20404;-92
2023/12/09 14:17:05;;;;;;;7.82;2.53;;;;;;;;;;4977126;28;20129;-92
2023/12/09 14:19:31;;;;;;;7.82;3.75;;;;;;;;;;4976775;28;20046;-93
2023/12/09 14:21:57;;;;;;;10.48;2.72;;;;;;;;;;4965781;28;20090;-93
2023/12/09 14:24:23;;;;;;;11.98;3.65;;;;;;;;;;4961057;28;20049;-93
2023/12/09 14:26:49;;;;;;;9.15;2.40;;;;;;;;;;4953681;28;20046;-92
2023/12/09 14:29:16;;;;;;;15.57;2.88;;;;;;;;;;4942006;28;20047;-93
2023/12/09 14:31:42;;;;;;;9.45;2.95;;;;;;;;;;4943884;29;20047;-93
2023/12/09 14:34:08;;;;;;;9.32;3.10;;;;;;;;;;4954411;29;20407;-93
2023/12/09 14:36:34;;;;;;;15.10;2.97;;;;;;;;;;4955506;28;20043;-93
2023/12/09 14:39:01;;;;;;;7.00;2.42;;;;;;;;;;4957881;28;20043;-93
2023/12/09 14:41:27;;;;;;;5.05;2.85;;;;;;;;;;4961928;28;20048;-93
2023/12/09 14:44:03;;;;;;;7.93;3.17;;;;;;;;;;4994759;28;20042;-93
2023/12/09 14:46:30;;;;;;;5.93;3.20;;;;;;;;;;4969925;28;20039;-93
2023/12/09 14:49:03;;;;;;;8.43;2.90;;;;;;;;;;4923991;29;20067;-93
2023/12/09 14:51:29;;;;;;;9.55;3.50;;;;;;;;;;4948523;28;20138;-93
2023/12/09 14:53:55;;;;;;;7.88;3.22;;;;;;;;;;4977593;28;20081;-93
2023/12/09 14:56:21;;;;;;;14.23;3.97;;;;;;;;;;4947678;28;20519;-92
2023/12/09 14:58:47;;;;;;;9.13;3.08;;;;;;;;;;4956105;29;20047;-94
2023/12/09 15:01:14;;;;;;;10.73;3.83;;;;;;;;;;4945821;28;20499;-93
2023/12/09 15:03:41;;;;;;;12.70;4.00;;;;;;;;;;4962845;28;20140;-93
2023/12/09 15:06:07;;;;;;;8.40;3.03;;;;;;;;;;4963668;28;20053;-92
2023/12/09 15:08:40;;;;;;;5.57;3.30;;;;;;;;;;4943844;28;20046;-92
2023/12/09 15:11:06;;;;;;;13.25;3.42;;;;;;;;;;4964913;28;20508;-93
2023/12/09 15:13:33;;;;;;;8.02;3.50;;;;;;;;;;4953640;28;20073;-93
2023/12/09 15:16:00;;;;;;;11.88;3.22;;;;;;;;;;4930447;28;20058;-93
2023/12/09 15:18:32;;;;;;;11.65;3.65;;;;;;;;;;4940254;29;20058;-93
2023/12/09 15:20:58;;;;;;;10.73;3.67;;;;;;;;;;4940841;28;20043;-93
2023/12/09 15:23:25;;;;;;;11.07;3.50;;;;;;;;;;4988135;28;20070;-93